Time,TemperatureF,DewpointF,PressureIn,WindDirection,WindDirectionDegrees,WindSpeedMPH,WindSpeedGustMPH,Humidity,HourlyPrecipIn,Conditions,Clouds,dailyrainin,SolarRadiationWatts/m^2,SoftwareType,DateUTC
2013-01-09 00:02:00,33.1,33.1,29.70,West,272,0.0,4.0,100,0.17,,,1.72,0.0,meteohub,2013-01-09 08:02:00,
2013-01-09 00:07:00,33.1,33.1,29.69,West,271,3.0,4.0,100,0.17,,,0.01,0.0,meteohub,2013-01-09 08:07:00,
2013-01-09 00:12:00,33.3,33.3,29.69,West,271,1.0,4.0,100,0.17,,,0.03,0.0,meteohub,2013-01-09 08:12:00,
2013-01-09 00:17:00,33.3,33.3,29.69,West,272,2.0,4.0,100,0.17,,,0.04,0.0,meteohub,2013-01-09 08:17:00,
2013-01-09 00:22:00,33.3,33.3,29.69,West,271,2.0,4.0,100,0.16,,,0.05,0.0,meteohub,2013-01-09 08:22:00,
2013-01-09 00:27:00,33.3,33.3,29.69,WNW,302,0.0,3.0,100,0.17,,,0.07,0.0,meteohub,2013-01-09 08:27:00,
2013-01-09 00:32:00,33.3,33.3,29.68,WNW,302,2.0,4.0,100,0.18,,,0.09,0.0,meteohub,2013-01-09 08:32:00,
2013-01-09 00:37:00,33.4,33.4,29.68,WNW,302,0.0,4.0,100,0.18,,,0.10,0.0,meteohub,2013-01-09 08:37:00,
2013-01-09 00:42:00,33.4,33.4,29.68,WNW,301,2.0,3.0,100,0.17,,,0.11,0.0,meteohub,2013-01-09 08:42:00,
2013-01-09 00:47:00,33.4,33.4,29.68,West,277,0.0,6.0,100,0.18,,,0.13,0.0,meteohub,2013-01-09 08:47:00,
2013-01-09 00:52:00,33.4,33.4,29.68,WSW,253,3.0,6.0,100,0.16,,,0.13,0.0,meteohub,2013-01-09 08:52:00,
2013-01-09 00:57:00,33.4,33.4,29.68,WSW,243,3.0,6.0,100,0.17,,,0.15,0.0,meteohub,2013-01-09 08:57:00,
2013-01-09 01:03:00,33.4,33.4,29.67,WSW,252,1.0,5.0,100,0.17,,,0.16,0.0,meteohub,2013-01-09 09:03:00,
2013-01-09 01:08:00,33.4,33.4,29.68,SW,236,3.0,5.0,100,0.16,,,0.18,0.0,meteohub,2013-01-09 09:08:00,
2013-01-09 01:13:00,33.4,33.4,29.68,SW,235,4.0,7.0,100,0.16,,,0.19,0.0,meteohub,2013-01-09 09:13:00,
2013-01-09 01:18:00,33.4,33.4,29.68,West,263,0.0,7.0,100,0.15,,,0.19,0.0,meteohub,2013-01-09 09:18:00,
2013-01-09 01:23:00,33.6,33.6,29.68,WNW,294,5.0,7.0,100,0.14,,,0.20,0.0,meteohub,2013-01-09 09:23:00,
2013-01-09 01:28:00,33.8,33.8,29.68,West,275,2.0,7.0,100,0.15,,,0.22,0.0,meteohub,2013-01-09 09:28:00,
2013-01-09 01:33:00,33.8,33.8,29.68,West,275,4.0,7.0,100,0.13,,,0.22,0.0,meteohub,2013-01-09 09:33:00,
2013-01-09 01:38:00,34.0,34.0,29.68,West,281,2.0,7.0,100,0.14,,,0.24,0.0,meteohub,2013-01-09 09:38:00,
2013-01-09 01:43:00,34.5,34.5,29.68,West,271,2.0,7.0,100,0.14,,,0.25,0.0,meteohub,2013-01-09 09:43:00,
2013-01-09 01:48:00,35.1,35.1,29.68,NW,309,5.0,7.0,100,0.13,,,0.26,0.0,meteohub,2013-01-09 09:48:00,
2013-01-09 01:53:00,35.2,35.2,29.68,WNW,300,2.0,10.0,100,0.13,,,0.27,0.0,meteohub,2013-01-09 09:53:00,
2013-01-09 01:58:00,35.2,35.2,29.68,West,281,3.0,10.0,100,0.12,,,0.28,0.0,meteohub,2013-01-09 09:58:00,
2013-01-09 02:03:00,35.2,35.2,29.68,NNW,340,2.0,10.0,100,0.12,,,0.29,0.0,meteohub,2013-01-09 10:03:00,
2013-01-09 02:08:00,37.6,37.6,29.68,West,276,2.0,5.0,100,0.12,,,0.30,0.0,meteohub,2013-01-09 10:08:00,
2013-01-09 02:13:00,37.2,37.2,29.68,West,277,2.0,5.0,100,0.13,,,0.32,0.0,meteohub,2013-01-09 10:13:00,
2013-01-09 02:18:00,36.9,36.9,29.68,West,272,3.0,6.0,100,0.13,,,0.33,0.0,meteohub,2013-01-09 10:18:00,
2013-01-09 02:23:00,36.9,36.9,29.68,West,271,2.0,6.0,100,0.14,,,0.35,0.0,meteohub,2013-01-09 10:23:00,
2013-01-09 02:28:00,37.0,37.0,29.69,WNW,300,2.0,6.0,100,0.14,,,0.36,0.0,meteohub,2013-01-09 10:28:00,
2013-01-09 02:33:00,37.9,37.9,29.69,SW,230,1.0,6.0,100,0.15,,,0.38,0.0,meteohub,2013-01-09 10:33:00,
2013-01-09 02:38:00,38.8,38.8,29.69,SW,232,1.0,5.0,100,0.16,,,0.40,0.0,meteohub,2013-01-09 10:38:00,
2013-01-09 02:43:00,38.8,38.8,29.69,NW,321,7.0,7.0,100,0.15,,,0.41,0.0,meteohub,2013-01-09 10:43:00,
2013-01-09 02:48:00,39.6,39.6,29.69,SW,231,6.0,8.0,100,0.17,,,0.44,0.0,meteohub,2013-01-09 10:48:00,
2013-01-09 02:53:00,39.9,39.9,29.69,NNW,342,0.0,12.0,100,0.18,,,0.46,0.0,meteohub,2013-01-09 10:53:00,
2013-01-09 02:58:00,40.3,40.3,29.69,North,5,1.0,12.0,100,0.18,,,0.47,0.0,meteohub,2013-01-09 10:58:00,
2013-01-09 03:03:00,40.5,40.5,29.70,SW,221,2.0,12.0,100,0.20,,,0.50,0.0,meteohub,2013-01-09 11:03:00,
2013-01-09 03:09:00,40.3,40.3,29.70,East,99,0.0,6.0,100,0.21,,,0.52,0.0,meteohub,2013-01-09 11:09:00,
2013-01-09 03:14:00,39.9,39.9,29.70,West,281,4.0,6.0,100,0.21,,,0.53,0.0,meteohub,2013-01-09 11:14:00,
2013-01-09 03:19:00,39.7,39.7,29.69,WSW,249,4.0,6.0,100,0.20,,,0.54,0.0,meteohub,2013-01-09 11:19:00,
2013-01-09 03:24:00,39.4,39.4,29.69,WSW,249,0.0,5.0,100,0.21,,,0.56,0.0,meteohub,2013-01-09 11:24:00,
2013-01-09 03:29:00,39.0,39.0,29.69,WSW,250,1.0,5.0,100,0.19,,,0.56,0.0,meteohub,2013-01-09 11:29:00,
2013-01-09 03:34:00,38.7,38.7,29.69,WSW,249,1.0,4.0,100,0.20,,,0.58,0.0,meteohub,2013-01-09 11:34:00,
2013-01-09 03:39:00,38.3,38.3,29.69,WSW,247,0.0,3.0,100,0.19,,,0.60,0.0,meteohub,2013-01-09 11:39:00,
2013-01-09 03:44:00,37.9,37.9,29.68,West,269,3.0,4.0,100,0.18,,,0.60,0.0,meteohub,2013-01-09 11:44:00,
2013-01-09 03:49:00,37.8,37.8,29.69,West,271,4.0,4.0,100,0.17,,,0.62,0.0,meteohub,2013-01-09 11:49:00,
2013-01-09 03:54:00,37.8,37.8,29.70,WSW,245,6.0,6.0,100,0.16,,,0.62,0.0,meteohub,2013-01-09 11:54:00,
2013-01-09 03:59:00,39.2,39.2,29.70,NNW,330,6.0,9.0,100,0.15,,,0.63,0.0,meteohub,2013-01-09 11:59:00,
2013-01-09 04:04:00,40.3,40.3,29.70,SW,216,5.0,13.0,100,0.14,,,0.64,0.0,meteohub,2013-01-09 12:04:00,
2013-01-09 04:09:00,40.3,40.3,29.70,WNW,301,4.0,13.0,100,0.13,,,0.65,0.0,meteohub,2013-01-09 12:09:00,
2013-01-09 04:14:00,40.5,40.5,29.69,NW,318,4.0,13.0,100,0.14,,,0.67,0.0,meteohub,2013-01-09 12:14:00,
2013-01-09 04:19:00,40.8,40.8,29.69,WNW,298,5.0,13.0,100,0.14,,,0.69,0.0,meteohub,2013-01-09 12:19:00,
2013-01-09 04:24:00,40.6,40.6,29.69,NNW,330,1.0,13.0,100,0.14,,,0.70,0.0,meteohub,2013-01-09 12:24:00,
2013-01-09 04:29:00,40.5,40.5,29.69,NW,304,3.0,13.0,100,0.14,,,0.71,0.0,meteohub,2013-01-09 12:29:00,
2013-01-09 04:34:00,40.5,40.5,29.69,WNW,288,0.0,10.0,100,0.15,,,0.73,0.0,meteohub,2013-01-09 12:34:00,
2013-01-09 04:39:00,40.5,40.5,29.69,WNW,288,0.0,7.0,100,0.13,,,0.73,0.0,meteohub,2013-01-09 12:39:00,
2013-01-09 04:44:00,40.5,40.5,29.69,WNW,288,0.0,6.0,100,0.13,,,0.74,0.0,meteohub,2013-01-09 12:44:00,
2013-01-09 04:50:00,40.3,40.3,29.69,WNW,288,0.0,5.0,100,0.14,,,0.76,0.0,meteohub,2013-01-09 12:50:00,
2013-01-09 04:55:00,40.1,40.1,29.69,WNW,288,0.0,3.0,100,0.15,,,0.77,0.0,meteohub,2013-01-09 12:55:00,
2013-01-09 05:00:00,39.7,39.7,29.69,WNW,288,0.0,2.0,100,0.16,,,0.79,0.0,meteohub,2013-01-09 13:00:00,
2013-01-09 05:05:00,39.4,39.4,29.69,WNW,288,0.0,3.0,100,0.15,,,0.80,0.0,meteohub,2013-01-09 13:05:00,
2013-01-09 05:10:00,38.8,38.8,29.69,WNW,288,2.0,3.0,100,0.15,,,0.81,0.0,meteohub,2013-01-09 13:10:00,
2013-01-09 05:15:00,38.3,38.3,29.69,WNW,289,0.0,3.0,100,0.16,,,0.83,0.0,meteohub,2013-01-09 13:15:00,
2013-01-09 05:20:00,38.1,38.1,29.70,WNW,289,0.0,4.0,100,0.17,,,0.84,0.0,meteohub,2013-01-09 13:20:00,
2013-01-09 05:25:00,37.9,37.9,29.70,WNW,289,0.0,4.0,100,0.16,,,0.87,0.0,meteohub,2013-01-09 13:25:00,
2013-01-09 05:30:00,37.9,37.9,29.70,WNW,289,0.0,3.0,100,0.17,,,0.89,0.0,meteohub,2013-01-09 13:30:00,
2013-01-09 05:35:00,37.9,37.9,29.70,WNW,289,0.0,1.0,100,0.20,,,0.94,0.0,meteohub,2013-01-09 13:35:00,
2013-01-09 05:40:00,37.9,37.9,29.70,WNW,289,0.0,1.0,100,0.20,,,0.97,0.0,meteohub,2013-01-09 13:40:00,
2013-01-09 05:45:00,37.9,37.9,29.70,WNW,289,0.0,0.0,100,0.22,,,0.98,0.0,meteohub,2013-01-09 13:45:00,
2013-01-09 05:50:00,37.8,37.8,29.69,WNW,289,0.0,0.0,100,0.22,,,1.01,0.0,meteohub,2013-01-09 13:50:00,
2013-01-09 05:55:00,37.6,37.6,29.70,WNW,289,2.0,3.0,100,0.24,,,1.03,0.0,meteohub,2013-01-09 13:55:00,
2013-01-09 06:00:00,37.6,37.6,29.70,WNW,289,0.0,3.0,100,0.24,,,1.04,0.0,meteohub,2013-01-09 14:00:00,
2013-01-09 06:05:00,37.2,37.2,29.70,WNW,289,0.0,3.0,100,0.25,,,1.07,0.0,meteohub,2013-01-09 14:05:00,
2013-01-09 06:10:00,37.2,37.2,29.70,WNW,289,0.0,2.0,100,0.24,,,1.08,0.0,meteohub,2013-01-09 14:10:00,
2013-01-09 06:15:00,37.0,37.0,29.70,WNW,289,0.0,2.0,100,0.23,,,1.09,0.0,meteohub,2013-01-09 14:15:00,
2013-01-09 06:20:00,36.9,36.9,29.70,WNW,289,0.0,1.0,100,0.22,,,1.10,0.0,meteohub,2013-01-09 14:20:00,
2013-01-09 06:25:00,36.9,36.9,29.70,WNW,289,0.0,1.0,100,0.21,,,1.11,0.0,meteohub,2013-01-09 14:25:00,
2013-01-09 06:30:00,36.9,36.9,29.70,WNW,289,0.0,0.0,100,0.19,,,1.12,0.0,meteohub,2013-01-09 14:30:00,
2013-01-09 06:35:00,36.7,36.7,29.70,WNW,289,0.0,0.0,100,0.17,,,1.12,0.0,meteohub,2013-01-09 14:35:00,
2013-01-09 06:40:00,36.5,36.5,29.70,WNW,289,0.0,1.0,100,0.15,,,1.13,0.0,meteohub,2013-01-09 14:40:00,
2013-01-09 06:45:00,36.5,36.5,29.70,WNW,289,0.0,1.0,100,0.14,,,1.14,0.0,meteohub,2013-01-09 14:45:00,
2013-01-09 06:50:00,36.3,36.3,29.70,WNW,289,0.0,1.0,100,0.13,,,1.14,0.0,meteohub,2013-01-09 14:50:00,
2013-01-09 06:55:00,36.3,36.3,29.70,WNW,289,0.0,1.0,100,0.12,,,1.15,0.0,meteohub,2013-01-09 14:55:00,
2013-01-09 07:00:00,36.0,36.0,29.70,WNW,289,0.0,3.0,100,0.11,,,1.16,0.0,meteohub,2013-01-09 15:00:00,
2013-01-09 07:06:00,36.0,36.0,29.70,WNW,289,0.0,3.0,100,0.10,,,1.17,0.0,meteohub,2013-01-09 15:06:00,
2013-01-09 07:11:00,35.8,35.6,29.70,WNW,289,0.0,3.0,99,0.08,,,1.17,0.0,meteohub,2013-01-09 15:11:00,
2013-01-09 07:16:00,35.6,35.6,29.70,WNW,289,0.0,2.0,100,0.08,,,1.18,0.0,meteohub,2013-01-09 15:16:00,
2013-01-09 07:21:00,35.4,35.2,29.70,WNW,289,0.0,1.0,99,0.08,,,1.19,0.0,meteohub,2013-01-09 15:21:00,
2013-01-09 07:26:00,35.2,35.1,29.70,WNW,289,0.0,2.0,99,0.09,,,1.20,0.0,meteohub,2013-01-09 15:26:00,
2013-01-09 07:31:00,35.2,35.1,29.70,WNW,289,0.0,2.0,99,0.08,,,1.20,0.0,meteohub,2013-01-09 15:31:00,
2013-01-09 07:36:00,35.1,34.9,29.70,WNW,289,1.0,2.0,99,0.08,,,1.20,0.0,meteohub,2013-01-09 15:36:00,
2013-01-09 07:41:00,34.9,34.7,29.70,WNW,289,1.0,2.0,99,0.08,,,1.21,0.0,meteohub,2013-01-09 15:41:00,
2013-01-09 07:46:00,34.7,34.5,29.72,WNW,289,2.0,2.0,99,0.08,,,1.22,0.0,meteohub,2013-01-09 15:46:00,
2013-01-09 07:51:00,34.3,34.2,29.72,WNW,289,1.0,3.0,99,0.08,,,1.23,0.0,meteohub,2013-01-09 15:51:00,
2013-01-09 07:56:00,34.3,34.2,29.72,WNW,289,0.0,3.0,99,0.09,,,1.24,0.0,meteohub,2013-01-09 15:56:00,
2013-01-09 08:01:00,34.2,34.0,29.71,WNW,289,0.0,3.0,99,0.08,,,1.24,0.0,meteohub,2013-01-09 16:01:00,
2013-01-09 08:06:00,34.0,33.8,29.72,WNW,289,0.0,2.0,99,0.08,,,1.25,0.0,meteohub,2013-01-09 16:06:00,
2013-01-09 08:11:00,34.0,33.8,29.72,WNW,289,0.0,1.0,99,0.07,,,1.25,0.0,meteohub,2013-01-09 16:11:00,
2013-01-09 08:16:00,33.8,33.6,29.72,WNW,289,0.0,1.0,99,0.07,,,1.26,0.0,meteohub,2013-01-09 16:16:00,
2013-01-09 08:21:00,33.8,33.6,29.72,WNW,289,0.0,1.0,99,0.07,,,1.26,0.0,meteohub,2013-01-09 16:21:00,
2013-01-09 08:26:00,33.6,33.4,29.72,WNW,289,0.0,1.0,99,0.07,,,1.27,0.0,meteohub,2013-01-09 16:26:00,
2013-01-09 08:31:00,33.4,33.3,29.73,WNW,289,0.0,1.0,99,0.07,,,1.27,0.0,meteohub,2013-01-09 16:31:00,
2013-01-09 08:36:00,33.4,33.3,29.73,WNW,289,1.0,1.0,99,0.06,,,1.27,5.0,meteohub,2013-01-09 16:36:00,
2013-01-09 08:41:00,33.4,33.3,29.73,WNW,289,2.0,2.0,99,0.07,,,1.28,5.0,meteohub,2013-01-09 16:41:00,
2013-01-09 08:46:00,33.3,33.1,29.73,WNW,289,1.0,2.0,99,0.06,,,1.28,5.0,meteohub,2013-01-09 16:46:00,
2013-01-09 08:51:00,33.3,33.1,29.74,WNW,289,0.0,3.0,99,0.05,,,1.28,7.0,meteohub,2013-01-09 16:51:00,
2013-01-09 08:56:00,33.3,33.1,29.73,WNW,289,0.0,3.0,99,0.04,,,1.28,9.0,meteohub,2013-01-09 16:56:00,
2013-01-09 09:01:00,33.3,33.1,29.74,WNW,289,0.0,3.0,99,0.04,,,1.28,7.0,meteohub,2013-01-09 17:01:00,
2013-01-09 09:06:00,33.3,33.1,29.74,WNW,289,0.0,0.0,99,0.04,,,1.29,7.0,meteohub,2013-01-09 17:06:00,
2013-01-09 09:11:00,33.3,33.1,29.74,WNW,289,0.0,0.0,99,0.04,,,1.29,7.0,meteohub,2013-01-09 17:11:00,
2013-01-09 09:16:00,33.3,33.1,29.74,WNW,289,0.0,0.0,99,0.04,,,1.30,9.0,meteohub,2013-01-09 17:16:00,
2013-01-09 09:22:00,33.1,32.9,29.74,WNW,289,0.0,0.0,99,0.04,,,1.30,12.0,meteohub,2013-01-09 17:22:00,
2013-01-09 09:27:00,33.1,32.9,29.74,WNW,289,0.0,0.0,99,0.03,,,1.30,16.0,meteohub,2013-01-09 17:27:00,
2013-01-09 09:32:00,33.3,33.1,29.74,WNW,289,0.0,1.0,99,0.03,,,1.30,18.0,meteohub,2013-01-09 17:32:00,
2013-01-09 09:37:00,33.3,33.1,29.74,WNW,289,1.0,1.0,99,0.04,,,1.31,16.0,meteohub,2013-01-09 17:37:00,
2013-01-09 09:42:00,33.3,33.1,29.75,WNW,289,1.0,2.0,99,0.03,,,1.31,16.0,meteohub,2013-01-09 17:42:00,
2013-01-09 09:47:00,33.3,33.1,29.74,WNW,289,0.0,2.0,99,0.03,,,1.31,19.0,meteohub,2013-01-09 17:47:00,
2013-01-09 09:52:00,33.3,33.1,29.74,WNW,289,0.0,2.0,99,0.03,,,1.31,21.0,meteohub,2013-01-09 17:52:00,
2013-01-09 09:57:00,33.3,33.1,29.75,WNW,289,0.0,2.0,99,0.03,,,1.31,18.0,meteohub,2013-01-09 17:57:00,
2013-01-09 10:02:00,33.3,33.1,29.75,WNW,289,2.0,2.0,99,0.03,,,1.31,21.0,meteohub,2013-01-09 18:02:00,
2013-01-09 10:07:00,33.3,33.1,29.74,WNW,289,2.0,3.0,99,0.02,,,1.31,19.0,meteohub,2013-01-09 18:07:00,
2013-01-09 10:12:00,33.3,33.1,29.75,WNW,289,0.0,3.0,99,0.02,,,1.31,18.0,meteohub,2013-01-09 18:12:00,
2013-01-09 10:17:00,33.4,33.3,29.75,WNW,289,0.0,3.0,99,0.01,,,1.31,19.0,meteohub,2013-01-09 18:17:00,
2013-01-09 10:22:00,33.4,33.3,29.75,WNW,289,0.0,3.0,99,0.01,,,1.31,30.0,meteohub,2013-01-09 18:22:00,
2013-01-09 10:27:00,33.4,33.3,29.75,WNW,289,0.0,2.0,99,0.01,,,1.31,35.0,meteohub,2013-01-09 18:27:00,
2013-01-09 10:32:00,33.6,33.4,29.75,WNW,289,0.0,1.0,99,0.01,,,1.31,37.0,meteohub,2013-01-09 18:32:00,
2013-01-09 10:37:00,33.6,33.4,29.75,WNW,289,2.0,2.0,99,0.00,,,1.31,37.0,meteohub,2013-01-09 18:37:00,
2013-01-09 10:41:00,33.6,33.4,29.75,WNW,289,0.0,2.0,99,0.00,,,1.31,32.0,meteohub,2013-01-09 18:41:00,
2013-01-09 10:42:00,33.6,33.4,29.75,WNW,289,0.0,2.0,99,0.00,,,1.31,30.0,meteohub,2013-01-09 18:42:00,
2013-01-09 10:43:00,33.6,33.4,29.75,WNW,289,0.0,2.0,99,0.00,,,1.31,28.0,meteohub,2013-01-09 18:43:00,
2013-01-09 10:44:00,33.6,33.4,29.75,WNW,289,0.0,2.0,99,0.00,,,1.31,26.0,meteohub,2013-01-09 18:44:00,
2013-01-09 10:45:00,33.6,33.4,29.75,WNW,289,1.0,2.0,99,0.00,,,1.31,26.0,meteohub,2013-01-09 18:45:00,
2013-01-09 10:46:00,33.6,33.4,29.75,WNW,289,2.0,2.0,99,0.00,,,1.31,25.0,meteohub,2013-01-09 18:46:00,
2013-01-09 10:48:00,33.6,33.4,29.76,WNW,289,0.0,2.0,99,0.00,,,1.31,23.0,meteohub,2013-01-09 18:48:00,
2013-01-09 10:50:00,33.6,33.4,29.75,WNW,289,1.0,3.0,99,0.00,,,1.31,25.0,meteohub,2013-01-09 18:50:00,
2013-01-09 10:53:00,33.6,33.4,29.75,WNW,289,0.0,3.0,99,0.00,,,1.31,26.0,meteohub,2013-01-09 18:53:00,
2013-01-09 10:58:00,33.6,33.4,29.75,WNW,289,0.0,3.0,99,0.00,,,1.31,26.0,meteohub,2013-01-09 18:58:00,
2013-01-09 11:03:00,33.8,33.6,29.75,WNW,289,0.0,3.0,99,0.00,,,1.31,30.0,meteohub,2013-01-09 19:03:00,
2013-01-09 11:08:00,33.8,33.6,29.75,WNW,289,0.0,2.0,99,0.01,,,1.32,33.0,meteohub,2013-01-09 19:08:00,
2013-01-09 11:13:00,33.8,33.6,29.75,WNW,289,1.0,1.0,99,0.01,,,1.32,32.0,meteohub,2013-01-09 19:13:00,
2013-01-09 11:18:00,33.8,33.6,29.75,WNW,289,2.0,3.0,99,0.01,,,1.32,30.0,meteohub,2013-01-09 19:18:00,
2013-01-09 11:23:00,33.8,33.6,29.75,WNW,289,3.0,4.0,99,0.01,,,1.32,28.0,meteohub,2013-01-09 19:23:00,
2013-01-09 11:28:00,33.8,33.6,29.75,WNW,289,0.0,5.0,99,0.01,,,1.32,35.0,meteohub,2013-01-09 19:28:00,
2013-01-09 11:34:00,34.0,33.8,29.75,WNW,289,1.0,5.0,99,0.01,,,1.32,42.0,meteohub,2013-01-09 19:34:00,
2013-01-09 11:39:00,34.0,33.8,29.76,WNW,289,0.0,5.0,99,0.02,,,1.33,49.0,meteohub,2013-01-09 19:39:00,
2013-01-09 11:44:00,34.2,34.0,29.76,WNW,289,0.0,2.0,99,0.02,,,1.33,58.0,meteohub,2013-01-09 19:44:00,
2013-01-09 11:49:00,34.2,34.0,29.75,WNW,289,0.0,2.0,99,0.02,,,1.33,62.0,meteohub,2013-01-09 19:49:00,
2013-01-09 11:54:00,34.2,34.0,29.76,WNW,289,0.0,2.0,99,0.02,,,1.33,53.0,meteohub,2013-01-09 19:54:00,
2013-01-09 11:59:00,34.3,34.2,29.75,WNW,289,0.0,1.0,99,0.02,,,1.33,63.0,meteohub,2013-01-09 19:59:00,
2013-01-09 12:04:00,34.3,34.2,29.75,WNW,289,1.0,1.0,99,0.02,,,1.33,69.0,meteohub,2013-01-09 20:04:00,
2013-01-09 12:09:00,34.5,34.3,29.75,WNW,289,0.0,2.0,99,0.01,,,1.33,70.0,meteohub,2013-01-09 20:09:00,
2013-01-09 12:14:00,34.9,34.7,29.76,WNW,289,0.0,2.0,99,0.01,,,1.33,72.0,meteohub,2013-01-09 20:14:00,
2013-01-09 12:19:00,35.1,34.9,29.76,WNW,289,0.0,2.0,99,0.01,,,1.33,70.0,meteohub,2013-01-09 20:19:00,
2013-01-09 12:24:00,35.1,34.9,29.75,WNW,289,0.0,1.0,99,0.01,,,1.33,86.0,meteohub,2013-01-09 20:24:00,
2013-01-09 12:29:00,35.1,34.9,29.75,WNW,289,0.0,1.0,99,0.01,,,1.33,88.0,meteohub,2013-01-09 20:29:00,
2013-01-09 12:34:00,35.2,35.1,29.75,WNW,289,1.0,1.0,99,0.00,,,1.33,81.0,meteohub,2013-01-09 20:34:00,
2013-01-09 12:39:00,35.2,35.1,29.76,WNW,289,0.0,2.0,99,0.00,,,1.33,67.0,meteohub,2013-01-09 20:39:00,
2013-01-09 12:44:00,35.2,35.1,29.75,WNW,289,0.0,3.0,99,0.00,,,1.33,76.0,meteohub,2013-01-09 20:44:00,
2013-01-09 12:49:00,35.2,35.1,29.75,WNW,289,0.0,3.0,99,0.00,,,1.33,86.0,meteohub,2013-01-09 20:49:00,
2013-01-09 12:54:00,35.2,35.1,29.76,WNW,289,0.0,3.0,99,0.00,,,1.33,76.0,meteohub,2013-01-09 20:54:00,
2013-01-09 12:59:00,35.4,35.2,29.76,WNW,289,0.0,3.0,99,0.00,,,1.33,76.0,meteohub,2013-01-09 20:59:00,
2013-01-09 13:04:00,35.6,35.4,29.76,WNW,289,0.0,2.0,99,0.00,,,1.33,81.0,meteohub,2013-01-09 21:04:00,
2013-01-09 13:09:00,35.6,35.4,29.75,WNW,289,0.0,2.0,99,0.00,,,1.33,93.0,meteohub,2013-01-09 21:09:00,
2013-01-09 13:14:00,36.0,35.8,29.76,WNW,289,1.0,2.0,99,0.00,,,1.33,84.0,meteohub,2013-01-09 21:14:00,
2013-01-09 13:19:00,36.0,35.8,29.76,WNW,289,0.0,2.0,99,0.00,,,1.33,74.0,meteohub,2013-01-09 21:19:00,
2013-01-09 13:24:00,36.0,35.8,29.77,WNW,289,1.0,2.0,99,0.00,,,1.33,58.0,meteohub,2013-01-09 21:24:00,
2013-01-09 13:29:00,36.1,36.0,29.77,WNW,289,1.0,2.0,99,0.00,,,1.33,56.0,meteohub,2013-01-09 21:29:00,
2013-01-09 13:35:00,36.1,36.0,29.77,WNW,289,0.0,3.0,99,0.00,,,1.33,69.0,meteohub,2013-01-09 21:35:00,
2013-01-09 13:40:00,36.1,36.0,29.77,WNW,289,1.0,3.0,99,0.00,,,1.33,69.0,meteohub,2013-01-09 21:40:00,
2013-01-09 13:45:00,36.1,36.0,29.78,WNW,289,0.0,3.0,99,0.00,,,1.33,77.0,meteohub,2013-01-09 21:45:00,
2013-01-09 13:50:00,36.3,36.1,29.77,WNW,289,2.0,3.0,99,0.00,,,1.33,76.0,meteohub,2013-01-09 21:50:00,
2013-01-09 13:55:00,36.3,36.1,29.78,WNW,289,0.0,2.0,99,0.00,,,1.33,58.0,meteohub,2013-01-09 21:55:00,
2013-01-09 14:00:00,36.7,36.5,29.78,WNW,289,0.0,2.0,99,0.00,,,1.33,67.0,meteohub,2013-01-09 22:00:00,
2013-01-09 14:05:00,36.7,36.5,29.78,WNW,289,0.0,2.0,99,0.00,,,1.33,53.0,meteohub,2013-01-09 22:05:00,
2013-01-09 14:10:00,36.9,36.7,29.78,WNW,289,0.0,2.0,99,0.00,,,1.33,39.0,meteohub,2013-01-09 22:10:00,
2013-01-09 14:15:00,36.9,36.7,29.78,WNW,289,0.0,0.0,99,0.00,,,1.33,47.0,meteohub,2013-01-09 22:15:00,
2013-01-09 14:20:00,36.9,36.7,29.78,WNW,289,0.0,1.0,99,0.00,,,1.33,58.0,meteohub,2013-01-09 22:20:00,
2013-01-09 14:25:00,36.9,36.7,29.78,WNW,289,0.0,1.0,99,0.00,,,1.33,58.0,meteohub,2013-01-09 22:25:00,
2013-01-09 14:30:00,36.9,36.7,29.78,WNW,289,0.0,1.0,99,0.00,,,1.33,54.0,meteohub,2013-01-09 22:30:00,
2013-01-09 14:35:00,37.0,36.9,29.78,WNW,289,0.0,2.0,99,0.00,,,1.33,56.0,meteohub,2013-01-09 22:35:00,
2013-01-09 14:40:00,37.0,36.9,29.78,WNW,289,1.0,2.0,99,0.00,,,1.33,46.0,meteohub,2013-01-09 22:40:00,
2013-01-09 14:45:00,37.0,36.9,29.79,WNW,289,1.0,2.0,99,0.00,,,1.33,33.0,meteohub,2013-01-09 22:45:00,
2013-01-09 14:50:00,37.0,36.9,29.79,WNW,289,0.0,2.0,99,0.00,,,1.33,33.0,meteohub,2013-01-09 22:50:00,
2013-01-09 14:55:00,37.0,36.9,29.79,WNW,289,0.0,2.0,99,0.00,,,1.33,33.0,meteohub,2013-01-09 22:55:00,
2013-01-09 15:00:00,37.0,36.9,29.79,WNW,289,0.0,2.0,99,0.00,,,1.33,28.0,meteohub,2013-01-09 23:00:00,
2013-01-09 15:05:00,36.9,36.3,29.79,WNW,289,0.0,2.0,98,0.00,,,1.33,26.0,meteohub,2013-01-09 23:05:00,
2013-01-09 15:10:00,36.9,36.3,29.80,WNW,289,0.0,2.0,98,0.00,,,1.33,28.0,meteohub,2013-01-09 23:10:00,
2013-01-09 15:15:00,36.9,36.3,29.79,WNW,289,0.0,2.0,98,0.00,,,1.33,19.0,meteohub,2013-01-09 23:15:00,
2013-01-09 15:20:00,36.9,36.3,29.80,WNW,289,0.0,1.0,98,0.00,,,1.33,19.0,meteohub,2013-01-09 23:20:00,
2013-01-09 15:25:00,36.9,36.3,29.80,WNW,289,0.0,1.0,98,0.00,,,1.33,18.0,meteohub,2013-01-09 23:25:00,
2013-01-09 15:30:00,36.9,36.3,29.80,WNW,289,0.0,0.0,98,0.00,,,1.33,12.0,meteohub,2013-01-09 23:30:00,
2013-01-09 15:35:00,36.9,36.3,29.80,WNW,289,0.0,0.0,98,0.00,,,1.33,12.0,meteohub,2013-01-09 23:35:00,
2013-01-09 15:40:00,36.9,36.3,29.80,WNW,289,0.0,0.0,98,0.00,,,1.33,11.0,meteohub,2013-01-09 23:40:00,
2013-01-09 15:45:00,36.9,36.3,29.80,WNW,289,0.0,0.0,98,0.00,,,1.33,9.0,meteohub,2013-01-09 23:45:00,
2013-01-09 15:50:00,36.9,36.3,29.80,WNW,289,0.0,2.0,98,0.00,,,1.33,5.0,meteohub,2013-01-09 23:50:00,
2013-01-09 15:55:00,36.7,36.1,29.81,WNW,289,2.0,2.0,98,0.00,,,1.33,0.0,meteohub,2013-01-09 23:55:00,
2013-01-09 16:00:00,36.7,36.1,29.81,WNW,289,0.0,3.0,98,0.00,,,1.33,0.0,meteohub,2013-01-10 00:00:00,
2013-01-09 16:06:00,36.7,36.1,29.81,WNW,289,0.0,3.0,98,0.00,,,1.33,0.0,meteohub,2013-01-10 00:06:00,
2013-01-09 16:11:00,36.5,36.0,29.81,WNW,289,0.0,3.0,98,0.00,,,1.33,0.0,meteohub,2013-01-10 00:11:00,
2013-01-09 16:16:00,36.7,36.1,29.81,WNW,289,0.0,2.0,98,0.00,,,1.33,0.0,meteohub,2013-01-10 00:16:00,
2013-01-09 16:21:00,36.5,36.0,29.81,WNW,289,1.0,2.0,98,0.00,,,1.33,0.0,meteohub,2013-01-10 00:21:00,
2013-01-09 16:26:00,36.5,36.0,29.82,WNW,289,2.0,2.0,98,0.00,,,1.33,0.0,meteohub,2013-01-10 00:26:00,
2013-01-09 16:31:00,36.7,36.1,29.82,WNW,289,2.0,3.0,98,0.00,,,1.33,0.0,meteohub,2013-01-10 00:31:00,
2013-01-09 16:36:00,36.7,36.1,29.82,WNW,289,0.0,4.0,98,0.00,,,1.33,0.0,meteohub,2013-01-10 00:36:00,
2013-01-09 16:41:00,36.7,36.1,29.82,WNW,289,0.0,4.0,98,0.00,,,1.33,0.0,meteohub,2013-01-10 00:41:00,
2013-01-09 16:46:00,36.7,36.1,29.82,WNW,289,0.0,4.0,98,0.00,,,1.33,0.0,meteohub,2013-01-10 00:46:00,
2013-01-09 16:51:00,36.7,36.1,29.82,WNW,289,1.0,4.0,98,0.00,,,1.33,0.0,meteohub,2013-01-10 00:51:00,
2013-01-09 16:56:00,36.7,36.1,29.83,NNW,344,4.0,4.0,98,0.00,,,1.33,0.0,meteohub,2013-01-10 00:56:00,
2013-01-09 17:01:00,36.7,36.1,29.83,NW,323,2.0,5.0,98,0.00,,,1.33,0.0,meteohub,2013-01-10 01:01:00,
2013-01-09 17:06:00,36.7,36.1,29.83,NW,323,0.0,5.0,98,0.00,,,1.33,0.0,meteohub,2013-01-10 01:06:00,
2013-01-09 17:11:00,36.7,36.1,29.83,NW,323,0.0,5.0,98,0.00,,,1.33,0.0,meteohub,2013-01-10 01:11:00,
2013-01-09 17:16:00,36.7,36.1,29.83,NW,323,1.0,3.0,98,0.00,,,1.33,0.0,meteohub,2013-01-10 01:16:00,
2013-01-09 17:21:00,36.5,36.0,29.83,NW,323,0.0,2.0,98,0.00,,,1.33,0.0,meteohub,2013-01-10 01:21:00,
2013-01-09 17:26:00,36.5,36.0,29.83,NW,323,0.0,2.0,98,0.00,,,1.33,0.0,meteohub,2013-01-10 01:26:00,
2013-01-09 17:31:00,36.5,36.0,29.83,NW,323,0.0,2.0,98,0.00,,,1.33,0.0,meteohub,2013-01-10 01:31:00,
2013-01-09 17:36:00,36.3,35.8,29.83,NW,323,0.0,2.0,98,0.00,,,1.33,0.0,meteohub,2013-01-10 01:36:00,
2013-01-09 17:41:00,36.3,35.8,29.83,NW,323,0.0,2.0,98,0.00,,,1.33,0.0,meteohub,2013-01-10 01:41:00,
2013-01-09 17:46:00,36.3,35.8,29.83,NW,323,0.0,1.0,98,0.00,,,1.33,0.0,meteohub,2013-01-10 01:46:00,
2013-01-09 17:51:00,36.1,35.6,29.84,NW,323,0.0,1.0,98,0.00,,,1.33,0.0,meteohub,2013-01-10 01:51:00,
2013-01-09 17:56:00,36.0,35.4,29.84,NW,323,0.0,1.0,98,0.00,,,1.33,0.0,meteohub,2013-01-10 01:56:00,
2013-01-09 18:01:00,36.0,35.4,29.84,NW,323,0.0,1.0,98,0.00,,,1.33,0.0,meteohub,2013-01-10 02:01:00,
2013-01-09 18:06:00,36.0,35.4,29.85,NW,323,2.0,4.0,98,0.00,,,1.33,0.0,meteohub,2013-01-10 02:06:00,
2013-01-09 18:11:00,36.0,35.4,29.85,NW,309,0.0,4.0,98,0.00,,,1.33,0.0,meteohub,2013-01-10 02:11:00,
2013-01-09 18:17:00,36.0,35.4,29.86,NW,309,1.0,10.0,98,0.00,,,1.33,0.0,meteohub,2013-01-10 02:17:00,
2013-01-09 18:22:00,36.0,35.4,29.86,West,281,4.0,10.0,98,0.01,,,1.34,0.0,meteohub,2013-01-10 02:22:00,
2013-01-09 18:27:00,35.8,35.2,29.86,WNW,299,6.0,10.0,98,0.01,,,1.34,0.0,meteohub,2013-01-10 02:27:00,
2013-01-09 18:32:00,35.6,34.9,29.86,NW,321,4.0,12.0,97,0.01,,,1.34,0.0,meteohub,2013-01-10 02:32:00,
2013-01-09 18:37:00,35.6,34.9,29.86,NNW,332,2.0,12.0,97,0.01,,,1.34,0.0,meteohub,2013-01-10 02:37:00,
2013-01-09 18:42:00,35.8,34.7,29.86,East,101,2.0,12.0,96,0.01,,,1.34,0.0,meteohub,2013-01-10 02:42:00,
2013-01-09 18:47:00,35.8,34.7,29.87,NNW,334,2.0,6.0,96,0.02,,,1.35,0.0,meteohub,2013-01-10 02:47:00,
2013-01-09 18:52:00,35.8,34.5,29.86,North,5,4.0,6.0,95,0.02,,,1.35,0.0,meteohub,2013-01-10 02:52:00,
2013-01-09 18:57:00,36.0,34.7,29.87,North,355,1.0,5.0,95,0.02,,,1.35,0.0,meteohub,2013-01-10 02:57:00,
2013-01-09 19:02:00,36.0,34.7,29.87,North,5,1.0,6.0,95,0.02,,,1.35,0.0,meteohub,2013-01-10 03:02:00,
2013-01-09 19:07:00,36.0,34.3,29.87,North,5,1.0,6.0,94,0.02,,,1.35,0.0,meteohub,2013-01-10 03:07:00,
2013-01-09 19:12:00,36.0,34.3,29.87,North,5,1.0,4.0,94,0.02,,,1.35,0.0,meteohub,2013-01-10 03:12:00,
2013-01-09 19:17:00,36.0,34.7,29.88,North,5,0.0,4.0,95,0.02,,,1.35,0.0,meteohub,2013-01-10 03:17:00,
2013-01-09 19:22:00,35.8,34.5,29.88,NW,322,3.0,3.0,95,0.01,,,1.35,0.0,meteohub,2013-01-10 03:22:00,
2013-01-09 19:27:00,35.8,34.5,29.88,NW,322,1.0,4.0,95,0.01,,,1.35,0.0,meteohub,2013-01-10 03:27:00,
2013-01-09 19:32:00,35.8,34.5,29.88,NW,322,0.0,4.0,95,0.01,,,1.35,0.0,meteohub,2013-01-10 03:32:00,
2013-01-09 19:37:00,35.8,34.7,29.88,NW,322,0.0,4.0,96,0.01,,,1.35,0.0,meteohub,2013-01-10 03:37:00,
2013-01-09 19:42:00,35.6,34.5,29.89,NW,322,0.0,4.0,96,0.01,,,1.35,0.0,meteohub,2013-01-10 03:42:00,
2013-01-09 19:47:00,35.6,34.5,29.88,NW,322,0.0,2.0,96,0.00,,,1.35,0.0,meteohub,2013-01-10 03:47:00,
2013-01-09 19:52:00,35.6,34.5,29.89,NW,322,0.0,2.0,96,0.00,,,1.35,0.0,meteohub,2013-01-10 03:52:00,
2013-01-09 19:57:00,35.4,34.3,29.89,NW,322,0.0,2.0,96,0.00,,,1.35,0.0,meteohub,2013-01-10 03:57:00,
2013-01-09 20:02:00,35.6,34.9,29.89,NW,322,0.0,1.0,97,0.00,,,1.35,0.0,meteohub,2013-01-10 04:02:00,
2013-01-09 20:07:00,35.4,34.7,29.89,NW,322,0.0,1.0,97,0.00,,,1.35,0.0,meteohub,2013-01-10 04:07:00,
2013-01-09 20:12:00,35.4,34.7,29.90,NW,322,0.0,1.0,97,0.00,,,1.35,0.0,meteohub,2013-01-10 04:12:00,
2013-01-09 20:17:00,35.4,34.7,29.89,NW,322,0.0,2.0,97,0.00,,,1.35,0.0,meteohub,2013-01-10 04:17:00,
2013-01-09 20:22:00,35.4,34.7,29.89,NW,322,0.0,2.0,97,0.00,,,1.35,0.0,meteohub,2013-01-10 04:22:00,
2013-01-09 20:27:00,35.4,34.7,29.89,NW,322,0.0,2.0,97,0.00,,,1.35,0.0,meteohub,2013-01-10 04:27:00,
2013-01-09 20:32:00,35.2,34.5,29.90,NW,322,0.0,1.0,97,0.00,,,1.35,0.0,meteohub,2013-01-10 04:32:00,
2013-01-09 20:37:00,35.2,34.5,29.90,NW,322,0.0,1.0,97,0.00,,,1.35,0.0,meteohub,2013-01-10 04:37:00,
2013-01-09 20:42:00,35.2,34.5,29.90,NW,322,0.0,1.0,97,0.00,,,1.35,0.0,meteohub,2013-01-10 04:42:00,
2013-01-09 20:47:00,35.2,34.5,29.90,NW,322,0.0,1.0,97,0.00,,,1.35,0.0,meteohub,2013-01-10 04:47:00,
2013-01-09 20:52:00,35.2,34.5,29.91,NW,322,0.0,1.0,97,0.00,,,1.35,0.0,meteohub,2013-01-10 04:52:00,
2013-01-09 20:57:00,35.2,34.5,29.91,NW,322,0.0,1.0,97,0.00,,,1.35,0.0,meteohub,2013-01-10 04:57:00,
2013-01-09 21:00:00,35.2,34.5,29.91,NW,322,0.0,1.0,97,0.00,,,1.35,0.0,meteohub,2013-01-10 05:00:00,
2013-01-09 21:01:00,35.1,34.3,29.91,NW,322,0.0,1.0,97,0.00,,,1.35,0.0,meteohub,2013-01-10 05:01:00,
2013-01-09 21:02:00,35.1,34.3,29.91,NW,322,0.0,1.0,97,0.00,,,1.35,0.0,meteohub,2013-01-10 05:02:00,
2013-01-09 21:07:00,35.1,34.5,29.91,NW,322,0.0,1.0,98,0.00,,,1.35,0.0,meteohub,2013-01-10 05:07:00,
2013-01-09 21:12:00,35.1,34.5,29.91,NW,322,0.0,2.0,98,0.00,,,1.35,0.0,meteohub,2013-01-10 05:12:00,
2013-01-09 21:17:00,34.9,34.3,29.91,NW,322,0.0,2.0,98,0.00,,,1.35,0.0,meteohub,2013-01-10 05:17:00,
2013-01-09 21:22:00,34.9,34.3,29.91,NW,322,0.0,1.0,98,0.00,,,1.35,0.0,meteohub,2013-01-10 05:22:00,
2013-01-09 21:27:00,34.7,34.2,29.92,NW,322,1.0,1.0,98,0.00,,,1.35,0.0,meteohub,2013-01-10 05:27:00,
2013-01-09 21:32:00,34.7,34.2,29.92,NW,322,0.0,1.0,98,0.00,,,1.35,0.0,meteohub,2013-01-10 05:32:00,
2013-01-09 21:37:00,34.5,34.0,29.92,NW,322,0.0,1.0,98,0.00,,,1.35,0.0,meteohub,2013-01-10 05:37:00,
2013-01-09 21:42:00,34.5,34.0,29.92,ENE,68,2.0,2.0,98,0.00,,,1.35,0.0,meteohub,2013-01-10 05:42:00,
2013-01-09 21:47:00,34.5,34.0,29.92,ENE,61,1.0,5.0,98,0.00,,,1.35,0.0,meteohub,2013-01-10 05:47:00,
2013-01-09 21:52:00,34.5,34.0,29.92,ENE,61,0.0,5.0,98,0.00,,,1.35,0.0,meteohub,2013-01-10 05:52:00,
2013-01-09 21:57:00,34.5,34.0,29.92,ENE,61,1.0,5.0,98,0.00,,,1.35,0.0,meteohub,2013-01-10 05:57:00,
2013-01-09 22:02:00,34.9,34.3,29.92,ENE,61,2.0,2.0,98,0.00,,,1.35,0.0,meteohub,2013-01-10 06:02:00,
2013-01-09 22:07:00,34.9,34.3,29.92,SW,234,0.0,5.0,98,0.00,,,1.35,0.0,meteohub,2013-01-10 06:07:00,
2013-01-09 22:12:00,34.9,34.3,29.92,SW,234,1.0,5.0,98,0.00,,,1.35,0.0,meteohub,2013-01-10 06:12:00,
2013-01-09 22:17:00,34.9,34.3,29.92,West,265,3.0,5.0,98,0.00,,,1.35,0.0,meteohub,2013-01-10 06:17:00,
2013-01-09 22:22:00,34.9,34.3,29.92,West,265,0.0,4.0,98,0.00,,,1.35,0.0,meteohub,2013-01-10 06:22:00,
2013-01-09 22:27:00,34.9,34.3,29.92,WNW,300,0.0,4.0,98,0.00,,,1.35,0.0,meteohub,2013-01-10 06:27:00,
2013-01-09 22:32:00,35.1,34.5,29.93,NW,323,2.0,4.0,98,0.00,,,1.35,0.0,meteohub,2013-01-10 06:32:00,
2013-01-09 22:37:00,35.1,34.5,29.93,NNW,328,1.0,3.0,98,0.00,,,1.35,0.0,meteohub,2013-01-10 06:37:00,
2013-01-09 22:42:00,35.2,34.7,29.93,NNW,338,2.0,4.0,98,0.00,,,1.35,0.0,meteohub,2013-01-10 06:42:00,
2013-01-09 22:47:00,35.2,34.7,29.92,NW,326,1.0,4.0,98,0.00,,,1.35,0.0,meteohub,2013-01-10 06:47:00,
2013-01-09 22:52:00,35.2,34.7,29.93,NW,316,3.0,4.0,98,0.00,,,1.35,0.0,meteohub,2013-01-10 06:52:00,
2013-01-09 22:57:00,35.2,34.7,29.93,West,279,0.0,4.0,98,0.00,,,1.35,0.0,meteohub,2013-01-10 06:57:00,
2013-01-09 23:02:00,35.2,34.7,29.93,West,279,0.0,4.0,98,0.00,,,1.35,0.0,meteohub,2013-01-10 07:02:00,
2013-01-09 23:07:00,35.2,34.7,29.92,West,279,0.0,4.0,98,0.00,,,1.35,0.0,meteohub,2013-01-10 07:07:00,
2013-01-09 23:12:00,35.2,34.5,29.92,West,279,0.0,2.0,97,0.00,,,1.35,0.0,meteohub,2013-01-10 07:12:00,
2013-01-09 23:17:00,35.2,34.5,29.92,West,279,0.0,1.0,97,0.00,,,1.35,0.0,meteohub,2013-01-10 07:17:00,
2013-01-09 23:22:00,35.2,34.5,29.93,West,279,0.0,1.0,97,0.00,,,1.35,0.0,meteohub,2013-01-10 07:22:00,
2013-01-09 23:27:00,35.2,34.5,29.92,West,279,0.0,1.0,97,0.00,,,1.35,0.0,meteohub,2013-01-10 07:27:00,
2013-01-09 23:32:00,35.2,34.5,29.93,West,279,0.0,1.0,97,0.00,,,1.35,0.0,meteohub,2013-01-10 07:32:00,
2013-01-09 23:37:00,35.2,34.5,29.93,West,279,2.0,2.0,97,0.00,,,1.35,0.0,meteohub,2013-01-10 07:37:00,
2013-01-09 23:42:00,35.2,34.5,29.93,West,279,0.0,3.0,97,0.00,,,1.35,0.0,meteohub,2013-01-10 07:42:00,
2013-01-09 23:47:00,35.1,34.3,29.93,West,279,1.0,3.0,97,0.00,,,1.35,0.0,meteohub,2013-01-10 07:47:00,
2013-01-09 23:52:00,35.1,34.3,29.94,West,279,2.0,3.0,97,0.00,,,1.35,0.0,meteohub,2013-01-10 07:52:00,
2013-01-09 23:57:00,34.9,34.2,29.94,West,279,0.0,2.0,97,0.00,,,1.35,0.0,meteohub,2013-01-10 07:57:00,